sensor_id;sensor_type;location;lat;lon;timestamp;P1;durP1;ratioP1;P2;durP2;ratioP2
12350;SDS011;6240;51.538;7.696;2023-03-04T00:01:48;18.27;;;7.87;;
12350;SDS011;6240;51.538;7.696;2023-03-04T00:04:15;14.70;;;6.97;;
12350;SDS011;6240;51.538;7.696;2023-03-04T00:06:43;12.27;;;6.67;;
12350;SDS011;6240;51.538;7.696;2023-03-04T00:09:10;15.47;;;7.20;;
12350;SDS011;6240;51.538;7.696;2023-03-04T00:11:37;16.00;;;7.43;;
12350;SDS011;6240;51.538;7.696;2023-03-04T00:14:04;13.53;;;7.10;;
12350;SDS011;6240;51.538;7.696;2023-03-04T00:16:31;15.93;;;7.07;;
12350;SDS011;6240;51.538;7.696;2023-03-04T00:19:00;13.27;;;6.90;;
12350;SDS011;6240;51.538;7.696;2023-03-04T00:21:27;14.87;;;6.50;;
12350;SDS011;6240;51.538;7.696;2023-03-04T00:23:55;15.47;;;6.47;;
12350;SDS011;6240;51.538;7.696;2023-03-04T00:26:22;15.53;;;6.57;;
12350;SDS011;6240;51.538;7.696;2023-03-04T00:28:49;11.93;;;6.30;;
12350;SDS011;6240;51.538;7.696;2023-03-04T00:31:16;14.33;;;5.73;;
12350;SDS011;6240;51.538;7.696;2023-03-04T00:33:43;17.73;;;6.33;;
12350;SDS011;6240;51.538;7.696;2023-03-04T00:36:12;13.57;;;6.30;;
12350;SDS011;6240;51.538;7.696;2023-03-04T00:38:39;14.43;;;5.93;;
12350;SDS011;6240;51.538;7.696;2023-03-04T00:41:06;16.53;;;5.00;;
12350;SDS011;6240;51.538;7.696;2023-03-04T00:43:34;12.03;;;5.23;;
12350;SDS011;6240;51.538;7.696;2023-03-04T00:46:01;13.73;;;6.00;;
12350;SDS011;6240;51.538;7.696;2023-03-04T03:20:40;16.60;;;3.67;;
12350;SDS011;6240;51.538;7.696;2023-03-04T03:23:08;13.73;;;3.47;;
12350;SDS011;6240;51.538;7.696;2023-03-04T03:25:35;10.83;;;3.60;;
12350;SDS011;6240;51.538;7.696;2023-03-04T03:28:02;16.17;;;3.97;;
12350;SDS011;6240;51.538;7.696;2023-03-04T03:30:30;20.60;;;3.90;;
12350;SDS011;6240;51.538;7.696;2023-03-04T03:32:57;10.90;;;3.70;;
12350;SDS011;6240;51.538;7.696;2023-03-04T03:35:24;11.03;;;3.10;;
12350;SDS011;6240;51.538;7.696;2023-03-04T03:37:52;11.00;;;3.03;;
12350;SDS011;6240;51.538;7.696;2023-03-04T03:40:20;11.13;;;3.10;;
12350;SDS011;6240;51.538;7.696;2023-03-04T03:42:47;14.50;;;3.90;;
12350;SDS011;6240;51.538;7.696;2023-03-04T03:45:14;12.43;;;3.53;;
12350;SDS011;6240;51.538;7.696;2023-03-04T03:47:42;13.50;;;3.40;;
12350;SDS011;6240;51.538;7.696;2023-03-04T03:50:10;7.93;;;2.77;;
12350;SDS011;6240;51.538;7.696;2023-03-04T03:52:37;12.57;;;3.43;;
12350;SDS011;6240;51.538;7.696;2023-03-04T03:55:06;18.67;;;3.30;;
12350;SDS011;6240;51.538;7.696;2023-03-04T03:57:33;10.00;;;3.00;;
12350;SDS011;6240;51.538;7.696;2023-03-04T04:00:00;14.67;;;3.50;;
12350;SDS011;6240;51.538;7.696;2023-03-04T04:02:28;19.17;;;4.43;;
12350;SDS011;6240;51.538;7.696;2023-03-04T04:04:55;10.53;;;3.47;;
12350;SDS011;6240;51.538;7.696;2023-03-04T04:07:22;13.03;;;3.43;;
12350;SDS011;6240;51.538;7.696;2023-03-04T04:09:50;11.53;;;3.80;;
12350;SDS011;6240;51.538;7.696;2023-03-04T04:12:19;9.97;;;3.20;;
12350;SDS011;6240;51.538;7.696;2023-03-04T04:14:46;13.37;;;3.20;;
12350;SDS011;6240;51.538;7.696;2023-03-04T04:17:13;11.47;;;3.30;;
12350;SDS011;6240;51.538;7.696;2023-03-04T04:19:40;13.30;;;3.53;;
12350;SDS011;6240;51.538;7.696;2023-03-04T04:22:08;15.20;;;4.03;;
12350;SDS011;6240;51.538;7.696;2023-03-04T04:24:39;13.53;;;3.13;;
12350;SDS011;6240;51.538;7.696;2023-03-04T04:27:06;12.30;;;3.27;;
12350;SDS011;6240;51.538;7.696;2023-03-04T04:29:35;9.53;;;2.87;;
12350;SDS011;6240;51.538;7.696;2023-03-04T04:32:02;13.33;;;3.00;;
12350;SDS011;6240;51.538;7.696;2023-03-04T04:34:31;9.87;;;2.83;;
12350;SDS011;6240;51.538;7.696;2023-03-04T04:37:00;10.13;;;3.17;;
12350;SDS011;6240;51.538;7.696;2023-03-04T04:39:27;9.27;;;2.73;;
12350;SDS011;6240;51.538;7.696;2023-03-04T04:41:54;12.20;;;2.93;;
12350;SDS011;6240;51.538;7.696;2023-03-04T04:44:21;17.50;;;4.10;;
12350;SDS011;6240;51.538;7.696;2023-03-04T04:46:50;14.60;;;3.47;;
12350;SDS011;6240;51.538;7.696;2023-03-04T04:49:17;12.00;;;3.60;;
12350;SDS011;6240;51.538;7.696;2023-03-04T04:51:44;11.40;;;3.03;;
12350;SDS011;6240;51.538;7.696;2023-03-04T04:54:12;7.20;;;2.70;;
12350;SDS011;6240;51.538;7.696;2023-03-04T04:56:39;13.33;;;2.97;;
12350;SDS011;6240;51.538;7.696;2023-03-04T04:59:07;10.57;;;3.17;;
12350;SDS011;6240;51.538;7.696;2023-03-04T05:01:34;10.70;;;2.77;;
12350;SDS011;6240;51.538;7.696;2023-03-04T05:04:02;11.93;;;2.93;;
12350;SDS011;6240;51.538;7.696;2023-03-04T05:06:38;6.33;;;3.43;;
12350;SDS011;6240;51.538;7.696;2023-03-04T05:09:06;10.33;;;2.80;;
12350;SDS011;6240;51.538;7.696;2023-03-04T05:11:33;13.13;;;2.87;;
12350;SDS011;6240;51.538;7.696;2023-03-04T05:14:00;9.47;;;2.87;;
12350;SDS011;6240;51.538;7.696;2023-03-04T05:16:28;9.53;;;3.53;;
12350;SDS011;6240;51.538;7.696;2023-03-04T05:18:55;11.23;;;3.53;;
12350;SDS011;6240;51.538;7.696;2023-03-04T05:21:24;7.33;;;2.80;;
12350;SDS011;6240;51.538;7.696;2023-03-04T05:23:51;11.33;;;2.80;;
12350;SDS011;6240;51.538;7.696;2023-03-04T05:26:18;9.90;;;2.93;;
12350;SDS011;6240;51.538;7.696;2023-03-04T05:28:46;10.47;;;3.00;;
12350;SDS011;6240;51.538;7.696;2023-03-04T05:31:13;8.90;;;2.57;;
12350;SDS011;6240;51.538;7.696;2023-03-04T05:33:41;9.47;;;2.93;;
12350;SDS011;6240;51.538;7.696;2023-03-04T05:36:09;7.57;;;2.67;;
12350;SDS011;6240;51.538;7.696;2023-03-04T05:38:37;7.83;;;3.20;;
12350;SDS011;6240;51.538;7.696;2023-03-04T05:41:05;6.70;;;2.40;;
12350;SDS011;6240;51.538;7.696;2023-03-04T05:43:33;10.80;;;3.10;;
12350;SDS011;6240;51.538;7.696;2023-03-04T05:46:03;10.33;;;3.17;;
12350;SDS011;6240;51.538;7.696;2023-03-04T05:48:30;10.83;;;2.57;;
12350;SDS011;6240;51.538;7.696;2023-03-04T05:50:58;12.10;;;3.13;;
12350;SDS011;6240;51.538;7.696;2023-03-04T05:53:33;9.23;;;2.83;;
12350;SDS011;6240;51.538;7.696;2023-03-04T05:56:07;9.13;;;2.40;;
12350;SDS011;6240;51.538;7.696;2023-03-04T05:58:34;12.70;;;3.13;;
12350;SDS011;6240;51.538;7.696;2023-03-04T06:01:05;12.13;;;3.30;;
12350;SDS011;6240;51.538;7.696;2023-03-04T06:03:33;18.87;;;3.20;;
12350;SDS011;6240;51.538;7.696;2023-03-04T06:06:00;6.53;;;2.57;;
12350;SDS011;6240;51.538;7.696;2023-03-04T06:08:28;10.07;;;2.43;;
12350;SDS011;6240;51.538;7.696;2023-03-04T06:10:55;14.83;;;4.00;;
12350;SDS011;6240;51.538;7.696;2023-03-04T06:13:25;7.47;;;2.40;;
12350;SDS011;6240;51.538;7.696;2023-03-04T06:15:53;8.30;;;3.10;;
12350;SDS011;6240;51.538;7.696;2023-03-04T06:18:20;10.40;;;2.70;;
12350;SDS011;6240;51.538;7.696;2023-03-04T06:20:47;12.37;;;2.90;;
12350;SDS011;6240;51.538;7.696;2023-03-04T06:23:15;14.57;;;2.67;;
12350;SDS011;6240;51.538;7.696;2023-03-04T06:25:42;9.63;;;2.60;;
12350;SDS011;6240;51.538;7.696;2023-03-04T06:28:09;12.87;;;2.97;;
12350;SDS011;6240;51.538;7.696;2023-03-04T06:30:38;9.73;;;2.97;;
12350;SDS011;6240;51.538;7.696;2023-03-04T06:33:05;9.70;;;3.10;;
12350;SDS011;6240;51.538;7.696;2023-03-04T06:35:33;11.87;;;3.60;;
12350;SDS011;6240;51.538;7.696;2023-03-04T06:38:00;9.00;;;3.00;;
12350;SDS011;6240;51.538;7.696;2023-03-04T06:40:27;13.93;;;3.30;;
12350;SDS011;6240;51.538;7.696;2023-03-04T06:42:54;8.83;;;2.70;;
12350;SDS011;6240;51.538;7.696;2023-03-04T06:45:21;9.33;;;2.77;;
12350;SDS011;6240;51.538;7.696;2023-03-04T06:47:50;13.40;;;3.17;;
12350;SDS011;6240;51.538;7.696;2023-03-04T06:50:17;14.73;;;3.43;;
12350;SDS011;6240;51.538;7.696;2023-03-04T06:52:45;14.95;;;4.43;;
12350;SDS011;6240;51.538;7.696;2023-03-04T06:55:13;17.03;;;3.40;;
12350;SDS011;6240;51.538;7.696;2023-03-04T06:57:40;9.20;;;3.23;;
12350;SDS011;6240;51.538;7.696;2023-03-04T07:00:08;8.77;;;3.63;;
12350;SDS011;6240;51.538;7.696;2023-03-04T07:02:35;6.77;;;2.80;;
12350;SDS011;6240;51.538;7.696;2023-03-04T07:05:04;8.57;;;2.90;;
12350;SDS011;6240;51.538;7.696;2023-03-04T07:07:32;11.20;;;2.67;;
12350;SDS011;6240;51.538;7.696;2023-03-04T07:09:59;11.13;;;3.27;;
12350;SDS011;6240;51.538;7.696;2023-03-04T07:12:26;12.17;;;2.97;;
12350;SDS011;6240;51.538;7.696;2023-03-04T07:14:54;11.20;;;3.40;;
12350;SDS011;6240;51.538;7.696;2023-03-04T07:17:21;10.03;;;3.07;;
12350;SDS011;6240;51.538;7.696;2023-03-04T07:19:54;9.20;;;3.23;;
12350;SDS011;6240;51.538;7.696;2023-03-04T07:22:23;12.77;;;2.97;;
12350;SDS011;6240;51.538;7.696;2023-03-04T07:24:50;13.07;;;3.23;;
12350;SDS011;6240;51.538;7.696;2023-03-04T07:27:17;11.27;;;3.23;;
12350;SDS011;6240;51.538;7.696;2023-03-04T07:29:44;8.40;;;2.77;;
12350;SDS011;6240;51.538;7.696;2023-03-04T07:32:11;10.27;;;3.27;;
12350;SDS011;6240;51.538;7.696;2023-03-04T07:34:39;8.53;;;2.93;;
12350;SDS011;6240;51.538;7.696;2023-03-04T07:37:06;7.87;;;2.67;;
12350;SDS011;6240;51.538;7.696;2023-03-04T07:39:35;12.13;;;3.40;;
12350;SDS011;6240;51.538;7.696;2023-03-04T07:42:02;12.50;;;3.70;;
12350;SDS011;6240;51.538;7.696;2023-03-04T07:44:29;9.97;;;2.70;;
12350;SDS011;6240;51.538;7.696;2023-03-04T07:46:56;7.40;;;2.90;;
12350;SDS011;6240;51.538;7.696;2023-03-04T07:49:24;9.50;;;3.13;;
12350;SDS011;6240;51.538;7.696;2023-03-04T07:51:51;10.87;;;3.07;;
12350;SDS011;6240;51.538;7.696;2023-03-04T07:54:18;10.63;;;4.40;;
12350;SDS011;6240;51.538;7.696;2023-03-04T07:56:47;10.10;;;2.87;;
12350;SDS011;6240;51.538;7.696;2023-03-04T07:59:14;14.27;;;3.77;;
12350;SDS011;6240;51.538;7.696;2023-03-04T08:01:41;12.43;;;3.87;;
12350;SDS011;6240;51.538;7.696;2023-03-04T08:04:08;7.37;;;2.53;;
12350;SDS011;6240;51.538;7.696;2023-03-04T08:06:35;7.73;;;2.87;;
12350;SDS011;6240;51.538;7.696;2023-03-04T08:09:04;11.27;;;3.00;;
12350;SDS011;6240;51.538;7.696;2023-03-04T08:11:31;8.00;;;2.97;;
12350;SDS011;6240;51.538;7.696;2023-03-04T08:14:00;11.57;;;3.83;;
12350;SDS011;6240;51.538;7.696;2023-03-04T08:16:28;9.97;;;3.33;;
12350;SDS011;6240;51.538;7.696;2023-03-04T08:18:56;11.43;;;3.37;;
12350;SDS011;6240;51.538;7.696;2023-03-04T08:21:25;12.17;;;4.37;;
12350;SDS011;6240;51.538;7.696;2023-03-04T08:23:56;11.07;;;3.80;;
12350;SDS011;6240;51.538;7.696;2023-03-04T08:26:26;6.63;;;2.97;;
12350;SDS011;6240;51.538;7.696;2023-03-04T08:28:54;12.23;;;3.00;;
12350;SDS011;6240;51.538;7.696;2023-03-04T08:31:23;8.30;;;2.87;;
12350;SDS011;6240;51.538;7.696;2023-03-04T08:33:50;13.80;;;3.40;;
12350;SDS011;6240;51.538;7.696;2023-03-04T08:36:18;8.27;;;3.20;;
12350;SDS011;6240;51.538;7.696;2023-03-04T08:38:45;8.27;;;2.70;;
12350;SDS011;6240;51.538;7.696;2023-03-04T08:41:13;8.10;;;2.57;;
12350;SDS011;6240;51.538;7.696;2023-03-04T08:43:41;9.30;;;2.50;;
12350;SDS011;6240;51.538;7.696;2023-03-04T08:46:08;10.43;;;2.47;;
12350;SDS011;6240;51.538;7.696;2023-03-04T08:48:36;6.60;;;2.60;;
12350;SDS011;6240;51.538;7.696;2023-03-04T08:51:09;5.87;;;2.87;;
12350;SDS011;6240;51.538;7.696;2023-03-04T08:53:41;8.93;;;2.40;;
12350;SDS011;6240;51.538;7.696;2023-03-04T08:56:10;6.13;;;2.23;;
12350;SDS011;6240;51.538;7.696;2023-03-04T08:58:38;6.40;;;2.50;;
12350;SDS011;6240;51.538;7.696;2023-03-04T09:01:06;8.23;;;2.90;;
12350;SDS011;6240;51.538;7.696;2023-03-04T09:03:33;7.50;;;2.20;;
12350;SDS011;6240;51.538;7.696;2023-03-04T09:06:04;6.60;;;2.13;;
12350;SDS011;6240;51.538;7.696;2023-03-04T09:08:34;8.87;;;2.20;;
12350;SDS011;6240;51.538;7.696;2023-03-04T09:11:04;4.23;;;2.10;;
12350;SDS011;6240;51.538;7.696;2023-03-04T09:13:33;7.10;;;3.10;;
12350;SDS011;6240;51.538;7.696;2023-03-04T09:16:00;8.23;;;3.20;;
12350;SDS011;6240;51.538;7.696;2023-03-04T09:18:27;5.07;;;3.10;;
12350;SDS011;6240;51.538;7.696;2023-03-04T09:20:55;7.50;;;2.50;;
12350;SDS011;6240;51.538;7.696;2023-03-04T09:23:23;8.83;;;3.47;;
12350;SDS011;6240;51.538;7.696;2023-03-04T09:25:51;7.90;;;2.83;;
12350;SDS011;6240;51.538;7.696;2023-03-04T09:28:18;7.63;;;2.30;;
12350;SDS011;6240;51.538;7.696;2023-03-04T09:30:46;7.37;;;2.93;;
12350;SDS011;6240;51.538;7.696;2023-03-04T09:33:14;4.70;;;1.97;;
12350;SDS011;6240;51.538;7.696;2023-03-04T09:35:45;7.07;;;2.83;;
12350;SDS011;6240;51.538;7.696;2023-03-04T09:38:17;6.73;;;2.20;;
12350;SDS011;6240;51.538;7.696;2023-03-04T09:40:52;7.17;;;2.23;;
12350;SDS011;6240;51.538;7.696;2023-03-04T09:43:22;5.40;;;2.10;;
12350;SDS011;6240;51.538;7.696;2023-03-04T09:45:54;6.77;;;2.43;;
12350;SDS011;6240;51.538;7.696;2023-03-04T09:48:22;7.90;;;3.00;;
12350;SDS011;6240;51.538;7.696;2023-03-04T09:50:54;6.20;;;2.30;;
12350;SDS011;6240;51.538;7.696;2023-03-04T09:53:24;8.33;;;2.93;;
12350;SDS011;6240;51.538;7.696;2023-03-04T09:55:56;6.53;;;2.70;;
12350;SDS011;6240;51.538;7.696;2023-03-04T09:58:27;6.90;;;2.70;;
12350;SDS011;6240;51.538;7.696;2023-03-04T10:01:00;5.33;;;2.50;;
12350;SDS011;6240;51.538;7.696;2023-03-04T10:03:30;4.70;;;2.17;;
12350;SDS011;6240;51.538;7.696;2023-03-04T10:06:00;7.77;;;2.87;;
12350;SDS011;6240;51.538;7.696;2023-03-04T10:08:30;7.47;;;3.47;;
12350;SDS011;6240;51.538;7.696;2023-03-04T10:11:00;6.47;;;3.20;;
12350;SDS011;6240;51.538;7.696;2023-03-04T10:13:30;9.60;;;3.20;;
12350;SDS011;6240;51.538;7.696;2023-03-04T10:16:01;9.80;;;3.50;;
12350;SDS011;6240;51.538;7.696;2023-03-04T10:18:30;8.27;;;3.47;;
12350;SDS011;6240;51.538;7.696;2023-03-04T10:20:59;6.13;;;3.77;;
12350;SDS011;6240;51.538;7.696;2023-03-04T10:23:28;11.07;;;3.73;;
12350;SDS011;6240;51.538;7.696;2023-03-04T10:25:55;7.03;;;3.30;;
12350;SDS011;6240;51.538;7.696;2023-03-04T10:28:26;7.30;;;3.30;;
12350;SDS011;6240;51.538;7.696;2023-03-04T10:30:56;6.30;;;3.37;;
12350;SDS011;6240;51.538;7.696;2023-03-04T10:33:28;5.27;;;3.17;;
12350;SDS011;6240;51.538;7.696;2023-03-04T10:36:00;6.03;;;2.70;;
12350;SDS011;6240;51.538;7.696;2023-03-04T10:38:28;7.93;;;2.90;;
12350;SDS011;6240;51.538;7.696;2023-03-04T10:40:57;7.53;;;2.97;;
12350;SDS011;6240;51.538;7.696;2023-03-04T10:43:26;5.73;;;2.77;;
12350;SDS011;6240;51.538;7.696;2023-03-04T10:45:54;7.37;;;2.80;;
12350;SDS011;6240;51.538;7.696;2023-03-04T10:48:23;7.23;;;3.13;;
12350;SDS011;6240;51.538;7.696;2023-03-04T10:50:50;5.07;;;3.50;;
12350;SDS011;6240;51.538;7.696;2023-03-04T10:53:22;6.50;;;3.20;;
12350;SDS011;6240;51.538;7.696;2023-03-04T10:55:50;8.23;;;3.97;;
12350;SDS011;6240;51.538;7.696;2023-03-04T10:58:17;6.37;;;3.40;;
12350;SDS011;6240;51.538;7.696;2023-03-04T11:00:45;5.17;;;3.40;;
12350;SDS011;6240;51.538;7.696;2023-03-04T11:03:21;11.10;;;3.63;;
12350;SDS011;6240;51.538;7.696;2023-03-04T11:05:49;6.67;;;2.97;;
12350;SDS011;6240;51.538;7.696;2023-03-04T11:08:18;8.73;;;3.43;;
12350;SDS011;6240;51.538;7.696;2023-03-04T11:10:47;8.13;;;3.50;;
12350;SDS011;6240;51.538;7.696;2023-03-04T11:13:17;5.70;;;3.33;;
12350;SDS011;6240;51.538;7.696;2023-03-04T11:15:51;7.07;;;3.37;;
12350;SDS011;6240;51.538;7.696;2023-03-04T11:18:21;8.80;;;3.10;;
12350;SDS011;6240;51.538;7.696;2023-03-04T11:20:52;7.53;;;3.83;;
12350;SDS011;6240;51.538;7.696;2023-03-04T11:23:21;5.77;;;3.40;;
12350;SDS011;6240;51.538;7.696;2023-03-04T11:25:51;7.40;;;3.40;;
12350;SDS011;6240;51.538;7.696;2023-03-04T11:28:21;6.93;;;3.67;;
12350;SDS011;6240;51.538;7.696;2023-03-04T11:30:50;5.20;;;3.80;;
12350;SDS011;6240;51.538;7.696;2023-03-04T11:33:21;5.03;;;3.03;;
12350;SDS011;6240;51.538;7.696;2023-03-04T11:35:52;7.40;;;3.10;;
12350;SDS011;6240;51.538;7.696;2023-03-04T11:38:24;4.67;;;3.23;;
12350;SDS011;6240;51.538;7.696;2023-03-04T11:40:56;5.90;;;2.97;;
12350;SDS011;6240;51.538;7.696;2023-03-04T11:43:26;6.47;;;3.00;;
12350;SDS011;6240;51.538;7.696;2023-03-04T11:46:08;5.53;;;2.90;;
12350;SDS011;6240;51.538;7.696;2023-03-04T11:48:47;5.83;;;2.77;;
12350;SDS011;6240;51.538;7.696;2023-03-04T11:51:17;5.77;;;2.90;;
12350;SDS011;6240;51.538;7.696;2023-03-04T11:53:50;4.87;;;2.73;;
12350;SDS011;6240;51.538;7.696;2023-03-04T11:56:23;6.03;;;2.80;;
12350;SDS011;6240;51.538;7.696;2023-03-04T11:58:58;4.03;;;2.67;;
12350;SDS011;6240;51.538;7.696;2023-03-04T12:01:31;6.90;;;3.03;;
12350;SDS011;6240;51.538;7.696;2023-03-04T12:04:03;5.20;;;3.23;;
12350;SDS011;6240;51.538;7.696;2023-03-04T12:06:34;5.43;;;3.00;;
12350;SDS011;6240;51.538;7.696;2023-03-04T12:09:08;6.60;;;2.70;;
12350;SDS011;6240;51.538;7.696;2023-03-04T12:11:43;4.07;;;2.43;;
12350;SDS011;6240;51.538;7.696;2023-03-04T12:14:23;6.17;;;3.30;;
12350;SDS011;6240;51.538;7.696;2023-03-04T12:17:02;5.30;;;2.73;;
12350;SDS011;6240;51.538;7.696;2023-03-04T12:19:35;2.97;;;2.57;;
12350;SDS011;6240;51.538;7.696;2023-03-04T12:22:11;3.67;;;2.87;;
12350;SDS011;6240;51.538;7.696;2023-03-04T12:24:50;5.70;;;3.20;;
12350;SDS011;6240;51.538;7.696;2023-03-04T12:27:20;6.57;;;3.43;;
12350;SDS011;6240;51.538;7.696;2023-03-04T12:29:51;6.27;;;2.67;;
12350;SDS011;6240;51.538;7.696;2023-03-04T12:32:23;5.73;;;2.70;;
12350;SDS011;6240;51.538;7.696;2023-03-04T12:35:03;3.10;;;2.60;;
12350;SDS011;6240;51.538;7.696;2023-03-04T12:37:55;5.27;;;3.30;;
12350;SDS011;6240;51.538;7.696;2023-03-04T12:40:29;6.73;;;3.10;;
12350;SDS011;6240;51.538;7.696;2023-03-04T12:43:15;7.63;;;3.87;;
12350;SDS011;6240;51.538;7.696;2023-03-04T12:45:46;7.63;;;3.60;;
12350;SDS011;6240;51.538;7.696;2023-03-04T12:48:19;6.67;;;2.80;;
12350;SDS011;6240;51.538;7.696;2023-03-04T12:50:52;3.07;;;2.60;;
12350;SDS011;6240;51.538;7.696;2023-03-04T12:53:25;5.23;;;2.93;;
12350;SDS011;6240;51.538;7.696;2023-03-04T12:55:56;3.93;;;2.37;;
12350;SDS011;6240;51.538;7.696;2023-03-04T12:58:24;7.03;;;3.10;;
12350;SDS011;6240;51.538;7.696;2023-03-04T13:00:54;4.00;;;3.23;;
12350;SDS011;6240;51.538;7.696;2023-03-04T13:03:24;5.17;;;3.40;;
12350;SDS011;6240;51.538;7.696;2023-03-04T13:05:57;3.93;;;2.27;;
12350;SDS011;6240;51.538;7.696;2023-03-04T13:08:33;4.13;;;2.40;;
12350;SDS011;6240;51.538;7.696;2023-03-04T13:11:02;4.33;;;2.50;;
12350;SDS011;6240;51.538;7.696;2023-03-04T13:14:02;5.80;;;2.27;;
12350;SDS011;6240;51.538;7.696;2023-03-04T13:16:29;5.17;;;2.70;;
12350;SDS011;6240;51.538;7.696;2023-03-04T13:19:00;3.23;;;2.70;;
12350;SDS011;6240;51.538;7.696;2023-03-04T13:21:27;4.00;;;3.13;;
12350;SDS011;6240;51.538;7.696;2023-03-04T13:24:43;4.50;;;2.83;;
12350;SDS011;6240;51.538;7.696;2023-03-04T13:26:43;4.87;;;2.93;;
12350;SDS011;6240;51.538;7.696;2023-03-04T13:31:56;4.17;;;3.10;;
12350;SDS011;6240;51.538;7.696;2023-03-04T13:34:45;4.30;;;3.07;;
12350;SDS011;6240;51.538;7.696;2023-03-04T13:37:27;4.60;;;2.63;;
12350;SDS011;6240;51.538;7.696;2023-03-04T13:42:41;4.00;;;2.30;;
12350;SDS011;6240;51.538;7.696;2023-03-04T13:45:28;2.87;;;2.20;;
12350;SDS011;6240;51.538;7.696;2023-03-04T13:47:56;4.50;;;2.20;;
12350;SDS011;6240;51.538;7.696;2023-03-04T13:50:35;4.60;;;2.33;;
12350;SDS011;6240;51.538;7.696;2023-03-04T13:56:00;2.87;;;2.00;;
12350;SDS011;6240;51.538;7.696;2023-03-04T13:58:28;3.90;;;2.07;;
12350;SDS011;6240;51.538;7.696;2023-03-04T14:00:55;4.17;;;2.40;;
12350;SDS011;6240;51.538;7.696;2023-03-04T14:03:24;5.87;;;2.60;;
12350;SDS011;6240;51.538;7.696;2023-03-04T14:06:14;4.87;;;3.53;;
12350;SDS011;6240;51.538;7.696;2023-03-04T14:08:43;4.83;;;3.13;;
12350;SDS011;6240;51.538;7.696;2023-03-04T14:11:15;3.70;;;2.30;;
12350;SDS011;6240;51.538;7.696;2023-03-04T14:13:46;8.43;;;2.90;;
12350;SDS011;6240;51.538;7.696;2023-03-04T14:16:17;7.57;;;3.10;;
12350;SDS011;6240;51.538;7.696;2023-03-04T14:18:45;9.20;;;5.80;;
12350;SDS011;6240;51.538;7.696;2023-03-04T14:21:14;5.80;;;2.73;;
12350;SDS011;6240;51.538;7.696;2023-03-04T14:23:41;5.47;;;2.50;;
12350;SDS011;6240;51.538;7.696;2023-03-04T14:26:09;6.43;;;2.23;;
12350;SDS011;6240;51.538;7.696;2023-03-04T14:28:44;8.27;;;3.20;;
12350;SDS011;6240;51.538;7.696;2023-03-04T14:31:16;7.33;;;3.43;;
12350;SDS011;6240;51.538;7.696;2023-03-04T14:33:45;5.53;;;1.77;;
12350;SDS011;6240;51.538;7.696;2023-03-04T14:36:17;5.43;;;1.90;;
12350;SDS011;6240;51.538;7.696;2023-03-04T14:38:48;4.87;;;1.97;;
12350;SDS011;6240;51.538;7.696;2023-03-04T14:41:16;5.17;;;2.00;;
12350;SDS011;6240;51.538;7.696;2023-03-04T14:43:45;5.47;;;1.93;;
12350;SDS011;6240;51.538;7.696;2023-03-04T14:46:17;7.20;;;1.80;;
12350;SDS011;6240;51.538;7.696;2023-03-04T14:48:50;3.73;;;1.83;;
12350;SDS011;6240;51.538;7.696;2023-03-04T14:51:35;9.00;;;2.27;;
12350;SDS011;6240;51.538;7.696;2023-03-04T14:56:49;5.13;;;2.03;;
12350;SDS011;6240;51.538;7.696;2023-03-04T14:59:16;5.37;;;2.17;;
12350;SDS011;6240;51.538;7.696;2023-03-04T15:01:43;5.63;;;2.27;;
12350;SDS011;6240;51.538;7.696;2023-03-04T15:04:10;4.57;;;2.03;;
12350;SDS011;6240;51.538;7.696;2023-03-04T15:06:46;5.50;;;2.40;;
12350;SDS011;6240;51.538;7.696;2023-03-04T15:09:17;6.90;;;2.17;;
12350;SDS011;6240;51.538;7.696;2023-03-04T15:11:45;7.43;;;2.50;;
12350;SDS011;6240;51.538;7.696;2023-03-04T15:16:56;5.50;;;2.43;;
12350;SDS011;6240;51.538;7.696;2023-03-04T15:19:27;6.90;;;1.93;;
12350;SDS011;6240;51.538;7.696;2023-03-04T15:22:04;9.13;;;2.33;;
12350;SDS011;6240;51.538;7.696;2023-03-04T15:24:32;5.10;;;2.60;;
12350;SDS011;6240;51.538;7.696;2023-03-04T15:27:00;6.13;;;2.63;;
12350;SDS011;6240;51.538;7.696;2023-03-04T15:29:32;5.13;;;2.20;;
12350;SDS011;6240;51.538;7.696;2023-03-04T15:31:59;6.03;;;2.07;;
12350;SDS011;6240;51.538;7.696;2023-03-04T15:34:26;4.97;;;2.20;;
12350;SDS011;6240;51.538;7.696;2023-03-04T15:36:55;6.03;;;2.07;;
12350;SDS011;6240;51.538;7.696;2023-03-04T15:39:25;8.40;;;2.47;;
12350;SDS011;6240;51.538;7.696;2023-03-04T15:41:53;9.17;;;2.47;;
12350;SDS011;6240;51.538;7.696;2023-03-04T15:44:20;7.57;;;2.27;;
12350;SDS011;6240;51.538;7.696;2023-03-04T15:46:47;6.87;;;2.27;;
12350;SDS011;6240;51.538;7.696;2023-03-04T15:49:14;8.20;;;2.30;;
12350;SDS011;6240;51.538;7.696;2023-03-04T15:51:42;6.50;;;2.40;;
12350;SDS011;6240;51.538;7.696;2023-03-04T15:54:09;8.60;;;2.30;;
12350;SDS011;6240;51.538;7.696;2023-03-04T15:56:40;6.53;;;1.70;;
12350;SDS011;6240;51.538;7.696;2023-03-04T15:59:09;9.07;;;1.90;;
12350;SDS011;6240;51.538;7.696;2023-03-04T16:01:36;6.53;;;2.17;;
12350;SDS011;6240;51.538;7.696;2023-03-04T16:04:05;6.93;;;2.43;;
12350;SDS011;6240;51.538;7.696;2023-03-04T16:06:32;7.40;;;2.30;;
12350;SDS011;6240;51.538;7.696;2023-03-04T16:08:59;7.50;;;2.43;;
12350;SDS011;6240;51.538;7.696;2023-03-04T16:11:28;11.13;;;2.53;;
12350;SDS011;6240;51.538;7.696;2023-03-04T16:13:58;8.60;;;2.30;;
12350;SDS011;6240;51.538;7.696;2023-03-04T16:16:26;10.47;;;2.50;;
12350;SDS011;6240;51.538;7.696;2023-03-04T16:18:54;8.37;;;2.40;;
12350;SDS011;6240;51.538;7.696;2023-03-04T16:21:25;8.10;;;2.83;;
12350;SDS011;6240;51.538;7.696;2023-03-04T16:23:55;6.73;;;2.30;;
12350;SDS011;6240;51.538;7.696;2023-03-04T16:26:24;8.93;;;2.77;;
12350;SDS011;6240;51.538;7.696;2023-03-04T16:28:51;10.07;;;2.30;;
12350;SDS011;6240;51.538;7.696;2023-03-04T16:31:20;11.23;;;3.13;;
12350;SDS011;6240;51.538;7.696;2023-03-04T16:33:47;11.57;;;3.10;;
12350;SDS011;6240;51.538;7.696;2023-03-04T16:36:17;7.50;;;2.57;;
12350;SDS011;6240;51.538;7.696;2023-03-04T16:38:47;6.37;;;2.17;;
12350;SDS011;6240;51.538;7.696;2023-03-04T16:41:18;7.63;;;2.20;;
12350;SDS011;6240;51.538;7.696;2023-03-04T16:43:46;7.67;;;2.23;;
12350;SDS011;6240;51.538;7.696;2023-03-04T16:46:13;7.83;;;2.43;;
12350;SDS011;6240;51.538;7.696;2023-03-04T16:48:42;7.97;;;2.60;;
12350;SDS011;6240;51.538;7.696;2023-03-04T16:51:11;8.23;;;2.43;;
12350;SDS011;6240;51.538;7.696;2023-03-04T16:53:39;6.57;;;2.73;;
12350;SDS011;6240;51.538;7.696;2023-03-04T16:56:09;5.23;;;2.10;;
12350;SDS011;6240;51.538;7.696;2023-03-04T16:58:37;5.43;;;1.80;;
12350;SDS011;6240;51.538;7.696;2023-03-04T17:01:05;6.70;;;2.10;;
12350;SDS011;6240;51.538;7.696;2023-03-04T17:03:32;6.40;;;2.70;;
12350;SDS011;6240;51.538;7.696;2023-03-04T17:06:00;7.03;;;2.03;;
12350;SDS011;6240;51.538;7.696;2023-03-04T17:08:29;7.87;;;2.23;;
12350;SDS011;6240;51.538;7.696;2023-03-04T17:11:00;8.27;;;2.20;;
12350;SDS011;6240;51.538;7.696;2023-03-04T17:13:30;7.57;;;2.60;;
12350;SDS011;6240;51.538;7.696;2023-03-04T17:16:00;8.80;;;2.80;;
12350;SDS011;6240;51.538;7.696;2023-03-04T17:18:28;5.53;;;2.60;;
12350;SDS011;6240;51.538;7.696;2023-03-04T17:21:01;11.67;;;2.90;;
12350;SDS011;6240;51.538;7.696;2023-03-04T17:23:28;9.03;;;3.07;;
12350;SDS011;6240;51.538;7.696;2023-03-04T17:25:56;8.67;;;2.93;;
12350;SDS011;6240;51.538;7.696;2023-03-04T17:28:24;8.73;;;2.73;;
12350;SDS011;6240;51.538;7.696;2023-03-04T17:30:54;6.37;;;2.43;;
12350;SDS011;6240;51.538;7.696;2023-03-04T17:33:22;6.63;;;2.60;;
12350;SDS011;6240;51.538;7.696;2023-03-04T17:35:51;12.80;;;4.30;;
12350;SDS011;6240;51.538;7.696;2023-03-04T17:38:19;8.97;;;3.10;;
12350;SDS011;6240;51.538;7.696;2023-03-04T17:40:46;5.07;;;2.67;;
12350;SDS011;6240;51.538;7.696;2023-03-04T17:43:13;4.23;;;2.33;;
12350;SDS011;6240;51.538;7.696;2023-03-04T17:45:41;8.27;;;2.50;;
12350;SDS011;6240;51.538;7.696;2023-03-04T17:48:09;5.63;;;2.20;;
12350;SDS011;6240;51.538;7.696;2023-03-04T17:50:39;5.50;;;2.70;;
12350;SDS011;6240;51.538;7.696;2023-03-04T17:53:06;6.97;;;2.30;;
12350;SDS011;6240;51.538;7.696;2023-03-04T17:55:35;5.90;;;2.47;;
12350;SDS011;6240;51.538;7.696;2023-03-04T17:58:02;9.87;;;2.90;;